Dayton, OH (45414)

7:41 AM EDT on October 20, 2014 (GMT -0400)
Sinclair Dayton Campus | Change Station
CLOSE
Current Station
Personal Weather Station
Location: Dayton, OH
Elevation: 780 ft
Nearby Weather Stations

Elev 780 ft 39.76 °N, 84.20 °W | Updated 18 seconds ago

Overcast
Overcast
49.7 °F
Feels Like 47 °F
N
6.0
Wind Variable Wind from SSW
Gusts 7.0 mph

Today
High -- | Low -- °F
--% Chance of Precip.
Yesterday
High -- | Low -- °F
Precip. -- in
7:52 AM 6:50 PM
Waning Crescent, 11% visible
Pressure 29.99 in
Visibility 10.0 miles
Clouds Mostly Cloudy 9000 ft
Overcast 11000 ft
Windchill 47 °F
Dew Point 44 °F
Humidity 80%
Rainfall 0.00 in
Snow Depth Not available.
UV 0.0 out of 12
Pollen 1.10 out of 12
Ozone Good
PM2.5 Good
Flu Activity Sporadic
METAR KDAY 201056Z 22010KT 10SM BKN090 OVC110 09/06 A2998 RMK AO2 SLP155 T00940056

More Conditions Fewer Conditions

Pressure 29.99 in
Visibility 10.0 miles
Clouds Mostly Cloudy 9000 ft
Overcast 11000 ft
Windchill 47 °F
Dew Point 44 °F
Humidity 80%
Rainfall 0.00 in
Snow Depth Not available.
UV 0.0 out of 12
Pollen 1.10 out of 12
Ozone Good
PM2.5 Good
Flu Activity Sporadic
METAR KDAY 201056Z 22010KT 10SM BKN090 OVC110 09/06 A2998 RMK AO2 SLP155 T00940056

More Conditions Fewer Conditions

10-Day Weather Forecast

Almanac

Astronomy

Oct. 20, 2014 Rise Set
Actual Time 7:52 AM EDT 6:50 PM EDT
Civil Twilight 7:24 AM EDT 7:17 PM EDT
Nautical Twilight 6:53 AM EDT 7:48 PM EDT
Astronomical Twilight 6:22 AM EDT 8:20 PM EDT
Moon 4:40 AM EDT 5:12 PM EDT
Length of Visible Light 11h 52m
Length of Day
10h 57m
Waning Crescent, 11% of the Moon is Illuminated
Today
Waning Crescent
Oct 23
New
Oct 30
First Quarter
Nov 6
Full
Nov 14
Last Quarter

Today's Extremes

State Highs State Lows

Community

WunderPhotos

Upload Photos

1,763,341 photos uploaded!

Nearby

Air Quality

  Air Quality AQ Index Pollutant
Yesterday Good
OZONE
Yesterday Good
PM2.5
Current Good
PM2.5
Current Good
OZONE
Monday Good
PM2.5
Monday Good
OZONE
Tuesday Good
PM2.5
Tuesday Good
OZONE

Snow Depth

Station Depth Elevation
No new snow has been reported.

Earthquake Activity

City Distance Mag. Time & Date
No recent earthquake activity has been reported nearby.
Minimum magnitude displayed is 2.5.

Coastal Water Temperatures

Place Temperature
No Stations Reporting

Nearby Weather Stations